地図

経路データ

SID SEASON NUMBER BASIN SUBBASIN NAME ISO_TIME NATURE LAT LON WMO_WIND WMO_PRES WMO_AGENCY TRACK_TYPE DIST2LAND LANDFALL IFLAG USA_AGENCY USA_ATCF_ID USA_LAT USA_LON USA_RECORD USA_STATUS USA_WIND USA_PRES USA_SSHS USA_R34_NE USA_R34_SE USA_R34_SW USA_R34_NW USA_R50_NE USA_R50_SE USA_R50_SW USA_R50_NW USA_R64_NE USA_R64_SE USA_R64_SW USA_R64_NW USA_POCI USA_ROCI USA_RMW USA_EYE TOKYO_LAT TOKYO_LON TOKYO_GRADE TOKYO_WIND TOKYO_PRES TOKYO_R50_DIR TOKYO_R50_LONG TOKYO_R50_SHORT TOKYO_R30_DIR TOKYO_R30_LONG TOKYO_R30_SHORT TOKYO_LAND CMA_LAT CMA_LON CMA_CAT CMA_WIND CMA_PRES HKO_LAT HKO_LON HKO_CAT HKO_WIND HKO_PRES NEWDELHI_LAT NEWDELHI_LON NEWDELHI_GRADE NEWDELHI_WIND NEWDELHI_PRES NEWDELHI_CI NEWDELHI_DP NEWDELHI_POCI REUNION_LAT REUNION_LON REUNION_TYPE REUNION_WIND REUNION_PRES REUNION_TNUM REUNION_CI REUNION_RMW REUNION_R34_NE REUNION_R34_SE REUNION_R34_SW REUNION_R34_NW REUNION_R50_NE REUNION_R50_SE REUNION_R50_SW REUNION_R50_NW REUNION_R64_NE REUNION_R64_SE REUNION_R64_SW REUNION_R64_NW BOM_LAT BOM_LON BOM_TYPE BOM_WIND BOM_PRES BOM_TNUM BOM_CI BOM_RMW BOM_R34_NE BOM_R34_SE BOM_R34_SW BOM_R34_NW BOM_R50_NE BOM_R50_SE BOM_R50_SW BOM_R50_NW BOM_R64_NE BOM_R64_SE BOM_R64_SW BOM_R64_NW BOM_ROCI BOM_POCI BOM_EYE BOM_POS_METHOD BOM_PRES_METHOD NADI_LAT NADI_LON NADI_CAT NADI_WIND NADI_PRES WELLINGTON_LAT WELLINGTON_LON WELLINGTON_WIND WELLINGTON_PRES DS824_LAT DS824_LON DS824_STAGE DS824_WIND DS824_PRES TD9636_LAT TD9636_LON TD9636_STAGE TD9636_WIND TD9636_PRES TD9635_LAT TD9635_LON TD9635_WIND TD9635_PRES TD9635_ROCI NEUMANN_LAT NEUMANN_LON NEUMANN_CLASS NEUMANN_WIND NEUMANN_PRES MLC_LAT MLC_LON MLC_CLASS MLC_WIND MLC_PRES USA_GUST BOM_GUST BOM_GUST_PER REUNION_GUST REUNION_GUST_PER USA_SEAHGT USA_SEARAD_NE USA_SEARAD_SE USA_SEARAD_SW USA_SEARAD_NW STORM_SPEED STORM_DIR
1934009S12073 1934 4 SI MM NOT_NAMED 1934-01-09 00:00:00 TS -12.3000 73.4000 main 1888 1842 _________O____ -1 -12.3000 73.4000 TC 25 11 205
1934009S12073 1934 4 SI MM NOT_NAMED 1934-01-09 03:00:00 TS -12.7975 73.1601 main 1842 1786 _________P____ -1 -12.7975 73.1601 TC 25 11 206
1934009S12073 1934 4 SI MM NOT_NAMED 1934-01-09 06:00:00 TS -13.3000 72.9000 main 1786 1732 _________O____ -1 -13.3000 72.9000 TC 25 12 208
1934009S12073 1934 4 SI MM NOT_NAMED 1934-01-09 09:00:00 TS -13.8075 72.6075 main 1732 1678 _________P____ -1 -13.8075 72.6075 TC 25 12 210
1934009S12073 1934 4 SI MM NOT_NAMED 1934-01-09 12:00:00 TS -14.3000 72.3000 main 1678 1630 _________O____ -1 -14.3000 72.3000 TC 25 11 212
1934009S12073 1934 4 SI MM NOT_NAMED 1934-01-09 15:00:00 TS -14.7650 71.9999 main 1625 1578 _________P____ -1 -14.7650 71.9999 TC 25 11 213
1934009S12073 1934 4 SI MM NOT_NAMED 1934-01-09 18:00:00 TS -15.2000 71.7000 main 1578 1531 _________O____ -1 -15.2000 71.7000 TC 25 10 215
1934009S12073 1934 4 SI MM NOT_NAMED 1934-01-09 21:00:00 TS -15.6150 71.3924 main 1531 1484 _________P____ -1 -15.6150 71.3924 TC 25 10 216
1934009S12073 1934 4 SI MM NOT_NAMED 1934-01-10 00:00:00 TS -16.0000 71.1000 main 1484 1453 _________O____ -1 -16.0000 71.1000 TC 25 9 215
1934009S12073 1934 4 SI MM NOT_NAMED 1934-01-10 03:00:00 TS -16.3649 70.8424 main 1439 1408 _________P____ -1 -16.3649 70.8424 TC 25 9 214
1934009S12073 1934 4 SI MM NOT_NAMED 1934-01-10 06:00:00 TS -16.7000 70.6000 main 1408 1377 _________O____ -1 -16.7000 70.6000 TC 25 8 216
1934009S12073 1934 4 SI MM NOT_NAMED 1934-01-10 09:00:00 TS -17.0075 70.3499 main 1367 1337 _________P____ -1 -17.0075 70.3499 TC 25 8 219
1934009S12073 1934 4 SI MM NOT_NAMED 1934-01-10 12:00:00 TS -17.3000 70.1000 main 1337 1307 _________O____ -1 -17.3000 70.1000 TC 25 8 218
1934009S12073 1934 4 SI MM NOT_NAMED 1934-01-10 15:00:00 TS -17.5999 69.8574 main 1307 1268 _________P____ -1 -17.5999 69.8574 TC 25 8 218
1934009S12073 1934 4 SI MM NOT_NAMED 1934-01-10 18:00:00 TS -17.9000 69.6000 main 1268 1229 _________O____ -1 -17.9000 69.6000 TC 25 8 221
1934009S12073 1934 4 SI MM NOT_NAMED 1934-01-10 21:00:00 TS -18.2075 69.3000 main 1229 1191 _________P____ -1 -18.2075 69.3000 TC 25 8 224
1934009S12073 1934 4 SI MM NOT_NAMED 1934-01-11 00:00:00 TS -18.5000 69.0000 main 1191 1164 _________O____ -1 -18.5000 69.0000 TC 25 8 223
1934009S12073 1934 4 SI MM NOT_NAMED 1934-01-11 03:00:00 TS -18.7649 68.7424 main 1154 1129 _________P____ -1 -18.7649 68.7424 TC 25 7 223
1934009S12073 1934 4 SI MM NOT_NAMED 1934-01-11 06:00:00 TS -19.0000 68.5000 main 1129 1105 _________O____ -1 -19.0000 68.5000 TC 25 6 226
1934009S12073 1934 4 SI MM NOT_NAMED 1934-01-11 09:00:00 TS -19.2074 68.2649 main 1105 1071 _________P____ -1 -19.2074 68.2649 TC 25 6 230
1934009S12073 1934 4 SI MM NOT_NAMED 1934-01-11 12:00:00 TS -19.4000 68.0000 main 1071 1037 _________O____ -1 -19.4000 68.0000 TC 25 7 234
1934009S12073 1934 4 SI MM NOT_NAMED 1934-01-11 15:00:00 TS -19.6075 67.6725 main 1037 993 _________P____ -1 -19.6075 67.6725 TC 25 8 239
1934009S12073 1934 4 SI MM NOT_NAMED 1934-01-11 18:00:00 TS -19.8000 67.3000 main 993 951 _________O____ -1 -19.8000 67.3000 TC 25 8 245
1934009S12073 1934 4 SI MM NOT_NAMED 1934-01-11 21:00:00 TS -19.9500 66.9073 main 951 907 _________P____ -1 -19.9500 66.9073 TC 25 8 248
1934009S12073 1934 4 SI MM NOT_NAMED 1934-01-12 00:00:00 TS -20.1000 66.5000 main 907 865 _________O____ -1 -20.1000 66.5000 TC 25 8 246
1934009S12073 1934 4 SI MM NOT_NAMED 1934-01-12 03:00:00 TS -20.2924 66.1000 main 865 823 _________P____ -1 -20.2924 66.1000 TC 25 9 242
1934009S12073 1934 4 SI MM NOT_NAMED 1934-01-12 06:00:00 TS -20.5000 65.7000 main 823 782 _________O____ -1 -20.5000 65.7000 TC 25 9 241
1934009S12073 1934 4 SI MM NOT_NAMED 1934-01-12 09:00:00 TS -20.7074 65.3000 main 782 741 _________P____ -1 -20.7074 65.3000 TC 25 9 242
1934009S12073 1934 4 SI MM NOT_NAMED 1934-01-12 12:00:00 TS -20.9000 64.9000 main 741 702 _________O____ -1 -20.9000 64.9000 TC 25 8 244
1934009S12073 1934 4 SI MM NOT_NAMED 1934-01-12 15:00:00 TS -21.0648 64.5074 main 702 662 _________P____ -1 -21.0648 64.5074 TC 25 8 248
1934009S12073 1934 4 SI MM NOT_NAMED 1934-01-12 18:00:00 TS -21.2000 64.1000 main 662 623 _________O____ -1 -21.2000 64.1000 TC 25 8 254
1934009S12073 1934 4 SI MM NOT_NAMED 1934-01-12 21:00:00 TS -21.2922 63.6797 main 623 574 _________P____ -1 -21.2922 63.6797 TC 25 9 257
1934009S12073 1934 4 SI MM NOT_NAMED 1934-01-13 00:00:00 TS -21.4000 63.2000 main 574 529 _________O____ -1 -21.4000 63.2000 TC 25 10 253
1934009S12073 1934 4 SI MM NOT_NAMED 1934-01-13 03:00:00 TS -21.5925 62.6227 main 519 466 _________P____ -1 -21.5925 62.6227 TC 25 12 250
1934009S12073 1934 4 SI MM NOT_NAMED 1934-01-13 06:00:00 TS -21.8000 62.0000 main 466 414 _________O____ -1 -21.8000 62.0000 TC 25 12 252
1934009S12073 1934 4 SI MM NOT_NAMED 1934-01-13 09:00:00 TS -21.9573 61.3998 main 418 367 _________P____ -1 -21.9573 61.3998 TC 25 12 255
1934009S12073 1934 4 SI MM NOT_NAMED 1934-01-13 12:00:00 TS -22.1000 60.8000 main 367 321 _________O____ -1 -22.1000 60.8000 TC 25 11 255
1934009S12073 1934 4 SI MM NOT_NAMED 1934-01-13 15:00:00 TS -22.2572 60.2074 main 327 289 _________P____ -1 -22.2572 60.2074 TC 25 12 255
1934009S12073 1934 4 SI MM NOT_NAMED 1934-01-13 18:00:00 TS -22.4000 59.6000 main 289 260 _________O____ -1 -22.4000 59.6000 TC 25 12 257
1934009S12073 1934 4 SI MM NOT_NAMED 1934-01-13 21:00:00 TS -22.5223 58.9575 main 260 242 _________P____ -1 -22.5223 58.9575 TC 25 12 261
1934009S12073 1934 4 SI MM NOT_NAMED 1934-01-14 00:00:00 TS -22.6000 58.3000 main 242 234 _________O____ -1 -22.6000 58.3000 TC 25 12 265
1934009S12073 1934 4 SI MM NOT_NAMED 1934-01-14 03:00:00 TS -22.6297 57.6500 main 234 190 _________P____ -1 -22.6297 57.6500 TC 25 12 270
1934009S12073 1934 4 SI MM NOT_NAMED 1934-01-14 06:00:00 TS -22.6000 57.0000 main 190 147 _________O____ -1 -22.6000 57.0000 TC 25 12 275
1934009S12073 1934 4 SI MM NOT_NAMED 1934-01-14 09:00:00 TS -22.5148 56.3424 main 142 112 _________P____ -1 -22.5148 56.3424 TC 25 12 279
1934009S12073 1934 4 SI MM NOT_NAMED 1934-01-14 12:00:00 TS -22.4000 55.7000 main 112 102 _________O____ -1 -22.4000 55.7000 TC 25 12 281
1934009S12073 1934 4 SI MM NOT_NAMED 1934-01-14 15:00:00 TS -22.2997 55.0926 main 113 113 _________P____ -1 -22.2997 55.0926 TC 25 11 280
1934009S12073 1934 4 SI MM NOT_NAMED 1934-01-14 18:00:00 TS -22.2000 54.5000 main 130 130 _________O____ -1 -22.2000 54.5000 TC 25 11 280
1934009S12073 1934 4 SI MM NOT_NAMED 1934-01-14 21:00:00 TS -22.0999 53.8926 main 170 170 _________P____ -1 -22.0999 53.8926 TC 25 11 280
1934009S12073 1934 4 SI MM NOT_NAMED 1934-01-15 00:00:00 TS -22.0000 53.3000 main 220 220 _________O____ -1 -22.0000 53.3000 TC 25 11 280
1934009S12073 1934 4 SI MM NOT_NAMED 1934-01-15 03:00:00 TS -21.9073 52.7352 main 273 273 _________P____ -1 -21.9073 52.7352 TC 25 10 281
1934009S12073 1934 4 SI MM NOT_NAMED 1934-01-15 06:00:00 TS -21.8000 52.2000 main 320 320 _________O____ -1 -21.8000 52.2000 TC 25 10 285
1934009S12073 1934 4 SI MM NOT_NAMED 1934-01-15 09:00:00 TS -21.6497 51.7000 main 348 295 _________P____ -1 -21.6497 51.7000 TC 25 10 288
1934009S12073 1934 4 SI MM NOT_NAMED 1934-01-15 12:00:00 TS -21.5000 51.2000 main 295 242 _________O____ -1 -21.5000 51.2000 TC 25 10 285
1934009S12073 1934 4 SI MM NOT_NAMED 1934-01-15 15:00:00 TS -21.3924 50.6576 main 242 179 _________P____ -1 -21.3924 50.6576 TC 25 10 281
1934009S12073 1934 4 SI MM NOT_NAMED 1934-01-15 18:00:00 TS -21.3000 50.1000 main 179 126 _________O____ -1 -21.3000 50.1000 TC 25 10 282
1934009S12073 1934 4 SI MM NOT_NAMED 1934-01-15 21:00:00 TS -21.1917 49.6025 main 126 63 _________P____ -1 -21.1917 49.6025 TC 25 10 281
1934009S12073 1934 4 SI MM NOT_NAMED 1934-01-16 00:00:00 TS -21.1000 49.0000 main 63 0 _________O____ -1 -21.1000 49.0000 TC 25 14 277
1934009S12073 1934 4 SI MM NOT_NAMED 1934-01-16 03:00:00 TS -21.0352 48.1524 main 0 0 _________P____ -1 -21.0352 48.1524 TC 25 17 273
1934009S12073 1934 4 SI MM NOT_NAMED 1934-01-16 06:00:00 TS -21.0000 47.2000 main 0 0 _________O____ -1 -21.0000 47.2000 TC 25 17 272
1934009S12073 1934 4 SI MM NOT_NAMED 1934-01-16 09:00:00 TS -20.9768 46.3148 main 0 0 _________P____ -1 -20.9768 46.3148 TC 25 17 270
1934009S12073 1934 4 SI MM NOT_NAMED 1934-01-16 12:00:00 TS -21.0000 45.4000 main 0 0 _________O____ -1 -21.0000 45.4000 TC 25 18 267
1934009S12073 1934 4 SI MM NOT_NAMED 1934-01-16 15:00:00 TS -21.0623 44.4072 main 0 0 _________P____ -1 -21.0623 44.4072 TC 25 19 264
1934009S12073 1934 4 SI MM NOT_NAMED 1934-01-16 18:00:00 TS -21.2000 43.4000 main 24 24 _________O____ -1 -21.2000 43.4000 TC 25 19 259
1934009S12073 1934 4 SI MM NOT_NAMED 1934-01-16 21:00:00 TS -21.4354 42.3681 main 112 112 _________P____ -1 -21.4354 42.3681 TC 25 18 254
1934009S12073 1934 4 SI MM NOT_NAMED 1934-01-17 00:00:00 TS -21.7000 41.5000 main 183 183 _________O____ -1 -21.7000 41.5000 TC 25 14 250
1934009S12073 1934 4 SI MM NOT_NAMED 1934-01-17 03:00:00 TS -21.8990 40.9744 main 229 229 _________P____ -1 -21.8990 40.9744 TC 25 9 244
1934009S12073 1934 4 SI MM NOT_NAMED 1934-01-17 06:00:00 TS -22.1000 40.6000 main 267 267 _________O____ -1 -22.1000 40.6000 TC 25 9 240
1934009S12073 1934 4 SI MM NOT_NAMED 1934-01-17 09:00:00 TS -22.3347 40.1722 main 308 308 _________P____ -1 -22.3347 40.1722 TC 25 10 239
1934009S12073 1934 4 SI MM NOT_NAMED 1934-01-17 12:00:00 TS -22.6000 39.7000 main 361 358 _________O____ -1 -22.6000 39.7000 TC 25 11 242
1934009S12073 1934 4 SI MM NOT_NAMED 1934-01-17 15:00:00 TS -22.8702 39.0999 main 358 298 _________P____ -1 -22.8702 39.0999 TC 25 13 242
1934009S12073 1934 4 SI MM NOT_NAMED 1934-01-17 18:00:00 TS -23.2000 38.5000 main 298 256 _________O____ -1 -23.2000 38.5000 TC 25 13 234
1934009S12073 1934 4 SI MM NOT_NAMED 1934-01-17 21:00:00 TS -23.6350 37.9753 main 256 213 _________P____ -1 -23.6350 37.9753 TC 25 12 222
1934009S12073 1934 4 SI MM NOT_NAMED 1934-01-18 00:00:00 TS -24.1000 37.6000 main 213 195 _________O____ -1 -24.1000 37.6000 TC 25 10 210
1934009S12073 1934 4 SI MM NOT_NAMED 1934-01-18 03:00:00 TS -24.4998 37.4320 main 197 197 _________P____ -1 -24.4998 37.4320 TC 25 8 193
1934009S12073 1934 4 SI MM NOT_NAMED 1934-01-18 06:00:00 TS -24.9000 37.4000 main 211 211 _________O____ -1 -24.9000 37.4000 TC 25 9 184
1934009S12073 1934 4 SI MM NOT_NAMED 1934-01-18 09:00:00 TS -25.3575 37.3774 main 240 240 _________P____ -1 -25.3575 37.3774 TC 25 9 0
1934009S12073 1934 4 SI MM NOT_NAMED 1934-01-18 12:00:00 TS -25.8000 37.4000 main 267 267 _________O____ -1 -25.8000 37.4000 TC 25 8 176
1934009S12073 1934 4 SI MM NOT_NAMED 1934-01-18 15:00:00 TS -26.1650 37.4425 main 291 291 _________P____ -1 -26.1650 37.4425 TC 25 7 173
1934009S12073 1934 4 SI MM NOT_NAMED 1934-01-18 18:00:00 TS -26.5000 37.5000 main 320 320 _________O____ -1 -26.5000 37.5000 TC 25 6 0
1934009S12073 1934 4 SI MM NOT_NAMED 1934-01-18 21:00:00 TS -26.7519 37.4475 main 336 336 _________P____ -1 -26.7519 37.4475 TC 25 7 173
1934009S12073 1934 4 SI MM NOT_NAMED 1934-01-19 00:00:00 TS -27.2000 37.6000 main 383 383 _________O____ -1 -27.2000 37.6000 TC 25 15 155
1934009S12073 1934 4 SI MM NOT_NAMED 1934-01-19 03:00:00 TS -28.1321 38.1839 main 498 498 _________P____ -1 -28.1321 38.1839 TC 25 24 147
1934009S12073 1934 4 SI MM NOT_NAMED 1934-01-19 06:00:00 TS -29.2000 39.1000 main 648 648 _________O____ -1 -29.2000 39.1000 TC 25 26 138
1934009S12073 1934 4 SI MM NOT_NAMED 1934-01-19 09:00:00 TS -30.0834 40.2114 main 676 670 _________P____ -1 -30.0834 40.2114 TC 25 26 129
1934009S12073 1934 4 SI MM NOT_NAMED 1934-01-19 12:00:00 TS -30.8000 41.4000 main 680 676 _________O____ -1 -30.8000 41.4000 TC 25 23 124
1934009S12073 1934 4 SI MM NOT_NAMED 1934-01-19 15:00:00 TS -31.3457 42.4091 main 692 692 _________P____ -1 -31.3457 42.4091 TC 25 19 118
1934009S12073 1934 4 SI MM NOT_NAMED 1934-01-19 18:00:00 TS -31.7000 43.4000 main 703 698 _________O____ -1 -31.7000 43.4000 TC 25 18 107
1934009S12073 1934 4 SI MM NOT_NAMED 1934-01-19 21:00:00 TS -31.8951 44.4720 main 706 703 _________P____ -1 -31.8951 44.4720 TC 25 19 99
1934009S12073 1934 4 SI MM NOT_NAMED 1934-01-20 00:00:00 TS -32.0000 45.6000 main 714 _________O____ -1 -32.0000 45.6000 TC 25 19 96

IBTrACS Databaseについて

本データベースは、米国NOAAが公開する1842年以降の世界の熱帯低気圧のベストトラックデータアーカイブInternational Best Track Archive for Climate Stewardship (IBTrACS)を、ウェブで閲覧しやすい形式に変換したものです。

最終更新日:2021-11-26